Time;durP1;ratioP1;P1;durP2;ratioP2;P2;SDS_P1;SDS_P2;PMS_P1;PMS_P2;Temp;Humidity;BMP_temperature;BMP_pressure;BME280_temperature;BME280_humidity;BME280_pressure;Samples;Min_cycle;Max_cycle;Signal;HPM_P1;HPM_P2
2023/07/27 00:02:03;;;;;;;8.18;6.07;;;13.70;99.90;;;;;;5032652;28;20045;-75
2023/07/27 00:04:28;;;;;;;9.75;5.80;;;13.80;99.90;;;;;;5032767;28;20048;-75
2023/07/27 00:06:54;;;;;;;10.88;5.97;;;13.70;99.90;;;;;;5032101;28;20461;-75
2023/07/27 00:09:20;;;;;;;10.25;6.72;;;13.70;99.90;;;;;;5016008;28;20124;-75
2023/07/27 00:11:45;;;;;;;11.05;5.95;;;13.70;99.90;;;;;;5032771;28;20124;-75
2023/07/27 00:14:11;;;;;;;10.95;5.88;;;13.70;99.90;;;;;;5032503;28;20068;-75
2023/07/27 00:16:36;;;;;;;8.88;5.57;;;13.80;99.90;;;;;;5032416;28;20037;-75
2023/07/27 00:19:02;;;;;;;8.45;5.88;;;13.80;99.90;;;;;;5032574;28;20041;-75
2023/07/27 00:21:28;;;;;;;7.70;5.80;;;13.80;99.90;;;;;;5032396;28;20410;-75
2023/07/27 00:23:53;;;;;;;8.68;5.93;;;13.80;99.90;;;;;;5032283;28;20033;-75
2023/07/27 00:26:19;;;;;;;8.07;5.93;;;13.70;99.90;;;;;;5032464;28;20041;-75
2023/07/27 00:28:44;;;;;;;8.38;5.88;;;13.80;99.90;;;;;;5032231;28;20045;-75
2023/07/27 00:31:10;;;;;;;8.65;5.95;;;13.70;99.90;;;;;;5015934;28;20041;-75
2023/07/27 00:33:35;;;;;;;8.23;5.63;;;13.80;99.90;;;;;;5015724;28;20041;-75
2023/07/27 00:36:01;;;;;;;11.02;6.30;;;13.80;99.90;;;;;;5032096;28;20497;-75
2023/07/27 00:38:27;;;;;;;8.73;5.75;;;13.80;99.90;;;;;;5015871;28;20081;-75
2023/07/27 00:40:53;;;;;;;7.20;5.28;;;13.80;99.90;;;;;;5032006;28;20510;-75
2023/07/27 00:43:18;;;;;;;9.43;5.88;;;13.90;99.90;;;;;;5015582;28;20067;-75
2023/07/27 00:45:46;;;;;;;8.18;5.45;;;13.90;99.90;;;;;;5015515;28;20041;-75
2023/07/27 00:48:12;;;;;;;9.45;5.40;;;14.00;99.90;;;;;;5031958;28;20522;-75
2023/07/27 00:50:38;;;;;;;8.60;5.78;;;14.00;99.90;;;;;;5031757;28;20560;-75
2023/07/27 00:53:09;;;;;;;7.20;5.70;;;14.00;99.90;;;;;;5031902;28;20045;-75
2023/07/27 00:55:35;;;;;;;8.57;5.57;;;14.00;99.90;;;;;;5032074;28;20045;-75
2023/07/27 00:58:02;;;;;;;9.93;5.25;;;14.00;99.90;;;;;;5031844;28;20087;-75
2023/07/27 01:00:27;;;;;;;6.65;4.78;;;14.00;99.90;;;;;;5015253;28;20079;-75
2023/07/27 01:02:53;;;;;;;7.15;4.60;;;14.10;99.90;;;;;;5031751;28;20077;-75
2023/07/27 01:05:19;;;;;;;7.57;4.80;;;14.10;99.90;;;;;;5031987;28;20059;-75
2023/07/27 01:07:45;;;;;;;7.22;4.78;;;14.10;99.90;;;;;;5031646;28;20550;-75
2023/07/27 01:10:11;;;;;;;9.82;5.40;;;14.20;99.90;;;;;;5031947;28;20091;-75
2023/07/27 01:12:52;;;;;;;6.20;4.70;;;14.20;99.90;;;;;;5031697;28;20449;-75
2023/07/27 01:15:22;;;;;;;7.53;4.85;;;14.30;99.90;;;;;;5031743;28;20033;-75
2023/07/27 01:18:19;;;;;;;7.60;4.95;;;14.30;99.90;;;;;;5033267;28;20100;-75
2023/07/27 01:20:53;;;;;;;9.52;5.32;;;14.40;99.90;;;;;;4943688;28;20142;-75
2023/07/27 01:23:55;;;;;;;7.85;5.00;;;14.30;99.90;;;;;;4960130;28;20488;-75
2023/07/27 01:26:26;;;;;;;8.82;4.95;;;14.40;99.90;;;;;;4943677;28;20051;-75
2023/07/27 01:29:19;;;;;;;6.75;4.85;;;14.40;99.90;;;;;;4960046;28;20042;-75
2023/07/27 01:31:47;;;;;;;8.00;4.88;;;14.40;99.90;;;;;;4959823;28;20104;-75
2023/07/27 01:34:27;;;;;;;10.05;5.10;;;14.40;99.90;;;;;;4959911;28;20129;-75
2023/07/27 01:36:59;;;;;;;8.70;4.93;;;14.50;99.90;;;;;;4959602;28;20134;-75
2023/07/27 01:39:27;;;;;;;9.18;4.43;;;14.50;99.90;;;;;;4959487;28;20491;-75
2023/07/27 01:41:54;;;;;;;6.97;4.78;;;14.50;99.90;;;;;;4959426;28;20046;-75
2023/07/27 01:44:24;;;;;;;6.60;4.63;;;14.50;99.90;;;;;;4959558;28;20097;-75
2023/07/27 01:46:52;;;;;;;7.65;4.97;;;14.50;99.90;;;;;;4959252;28;20043;-75
2023/07/27 01:49:19;;;;;;;8.18;5.18;;;14.50;99.90;;;;;;4959263;28;20129;-75
2023/07/27 01:51:46;;;;;;;7.35;4.40;;;14.60;99.90;;;;;;4959668;28;20059;-75
2023/07/27 01:54:13;;;;;;;9.77;5.18;;;14.60;99.90;;;;;;4959225;28;20409;-75
2023/07/27 01:56:40;;;;;;;8.57;4.97;;;14.60;99.90;;;;;;4979742;28;20049;-75
2023/07/27 01:59:06;;;;;;;9.65;5.82;;;14.60;99.90;;;;;;5034854;28;20405;-75
2023/07/27 02:01:33;;;;;;;7.30;5.25;;;14.60;99.90;;;;;;5018464;28;20046;-75
2023/07/27 02:03:59;;;;;;;7.78;5.03;;;14.60;99.90;;;;;;5035194;28;20034;-75
2023/07/27 02:06:25;;;;;;;8.40;5.13;;;14.70;99.90;;;;;;5034835;28;20065;-75
2023/07/27 02:08:51;;;;;;;8.07;5.22;;;14.70;99.90;;;;;;5035043;28;20069;-75
2023/07/27 02:11:19;;;;;;;8.48;4.93;;;14.70;99.90;;;;;;5034719;28;20033;-75
2023/07/27 02:13:44;;;;;;;7.05;4.80;;;14.70;99.90;;;;;;5018768;28;20395;-75
2023/07/27 02:16:43;;;;;;;6.43;4.93;;;14.70;99.90;;;;;;5018426;28;20513;-75
2023/07/27 02:19:11;;;;;;;8.45;5.43;;;14.70;99.90;;;;;;5034505;28;20041;-75
2023/07/27 02:21:37;;;;;;;6.47;5.10;;;14.70;99.90;;;;;;5018322;28;20107;-75
2023/07/27 02:24:04;;;;;;;8.88;5.28;;;14.70;99.90;;;;;;5034494;28;20029;-75
2023/07/27 02:26:30;;;;;;;7.25;4.93;;;14.70;99.90;;;;;;5034391;28;20038;-75
2023/07/27 02:28:56;;;;;;;7.20;5.25;;;14.70;99.90;;;;;;5033952;28;20037;-75
2023/07/27 02:31:23;;;;;;;8.98;5.40;;;14.80;99.90;;;;;;5034360;28;20069;-75
2023/07/27 02:33:49;;;;;;;7.85;4.97;;;14.80;99.90;;;;;;5018121;28;20046;-75
2023/07/27 02:36:14;;;;;;;9.18;5.35;;;14.70;99.90;;;;;;5034274;28;20091;-75
2023/07/27 02:38:40;;;;;;;8.02;5.28;;;14.70;99.90;;;;;;5034455;28;20099;-75
2023/07/27 02:41:06;;;;;;;7.50;4.97;;;14.70;99.90;;;;;;5017615;28;20041;-75
2023/07/27 02:43:31;;;;;;;9.70;5.78;;;14.70;99.90;;;;;;5017727;28;20548;-75
2023/07/27 02:45:59;;;;;;;7.38;5.05;;;14.70;99.90;;;;;;5034327;28;20042;-75
2023/07/27 02:48:24;;;;;;;7.15;5.30;;;14.70;99.90;;;;;;5034057;28;20053;-75
2023/07/27 02:50:51;;;;;;;7.13;5.32;;;14.70;99.90;;;;;;5033908;28;20037;-75
2023/07/27 02:53:17;;;;;;;9.27;5.85;;;14.70;99.90;;;;;;5034233;28;20107;-75
2023/07/27 02:55:42;;;;;;;8.43;5.82;;;14.60;99.90;;;;;;5033970;28;20387;-75
2023/07/27 02:58:08;;;;;;;9.45;6.07;;;14.80;99.90;;;;;;5033879;28;20064;-75
2023/07/27 03:00:34;;;;;;;8.13;5.68;;;14.70;99.90;;;;;;5017310;28;20037;-75
2023/07/27 03:03:00;;;;;;;10.70;5.75;;;14.70;99.90;;;;;;5033793;28;20049;-75
2023/07/27 03:05:27;;;;;;;7.65;6.07;;;14.60;99.90;;;;;;5033763;28;20076;-75
2023/07/27 03:07:52;;;;;;;9.18;5.88;;;14.70;99.90;;;;;;5017116;28;20565;-75
2023/07/27 03:10:18;;;;;;;11.23;6.10;;;14.60;99.90;;;;;;5033650;28;20125;-75
2023/07/27 03:12:44;;;;;;;7.90;5.50;;;14.60;99.90;;;;;;5033669;28;20064;-75
2023/07/27 03:15:09;;;;;;;11.48;5.80;;;14.60;99.90;;;;;;5017321;28;20033;-75
2023/07/27 03:17:35;;;;;;;9.80;6.40;;;14.50;99.90;;;;;;5017316;28;20041;-75
2023/07/27 03:20:01;;;;;;;12.65;5.90;;;14.50;99.90;;;;;;5033458;28;20498;-75
2023/07/27 03:22:27;;;;;;;8.18;5.90;;;14.50;99.90;;;;;;5033719;28;20041;-75
2023/07/27 03:24:52;;;;;;;9.30;6.13;;;14.40;99.90;;;;;;5033393;28;20045;-75
2023/07/27 03:27:18;;;;;;;9.23;5.78;;;14.40;99.90;;;;;;5033278;28;20041;-75
2023/07/27 03:29:44;;;;;;;9.02;5.90;;;14.30;99.90;;;;;;5033237;28;20072;-75
2023/07/27 03:32:09;;;;;;;9.32;5.68;;;14.30;99.90;;;;;;5033235;28;20033;-75
2023/07/27 03:34:35;;;;;;;8.40;5.72;;;14.30;99.90;;;;;;5033193;28;20041;-75
2023/07/27 03:37:00;;;;;;;8.80;5.75;;;14.30;99.90;;;;;;5016730;28;20095;-75
2023/07/27 03:39:26;;;;;;;7.93;5.72;;;14.30;99.90;;;;;;5032725;28;20033;-75
2023/07/27 03:41:51;;;;;;;7.82;6.00;;;14.30;99.90;;;;;;5032649;28;20091;-75
2023/07/27 03:44:17;;;;;;;8.38;5.72;;;14.20;99.90;;;;;;5033026;28;20045;-75
2023/07/27 03:46:42;;;;;;;8.48;6.45;;;14.20;99.90;;;;;;5016707;28;20044;-75
2023/07/27 03:49:09;;;;;;;8.93;6.25;;;14.20;99.90;;;;;;5032766;28;20045;-75
2023/07/27 03:51:34;;;;;;;11.15;6.60;;;14.20;99.90;;;;;;5016424;28;20040;-75
2023/07/27 03:54:00;;;;;;;10.60;7.35;;;14.20;99.90;;;;;;5033122;28;20030;-75
2023/07/27 03:56:25;;;;;;;8.88;6.88;;;14.20;99.90;;;;;;5032819;28;20405;-75
2023/07/27 03:58:51;;;;;;;10.07;6.40;;;14.20;99.90;;;;;;5033063;28;20057;-75
2023/07/27 04:01:16;;;;;;;10.32;7.53;;;14.30;99.90;;;;;;5032885;28;20034;-75
2023/07/27 04:03:42;;;;;;;14.35;7.53;;;14.20;99.90;;;;;;5032706;28;20477;-75
2023/07/27 04:06:07;;;;;;;11.40;6.68;;;14.30;99.90;;;;;;5032875;28;20042;-75
2023/07/27 04:08:33;;;;;;;10.23;7.05;;;14.30;99.90;;;;;;5016126;28;20034;-75
2023/07/27 04:10:59;;;;;;;12.90;7.45;;;14.30;99.90;;;;;;5032728;28;20091;-75
2023/07/27 04:13:24;;;;;;;11.00;7.07;;;14.30;99.90;;;;;;5032512;28;20406;-75
2023/07/27 04:15:50;;;;;;;10.75;7.50;;;14.30;99.90;;;;;;5032733;28;20037;-75
2023/07/27 04:18:15;;;;;;;9.38;7.00;;;14.40;99.90;;;;;;5032426;28;20405;-75
2023/07/27 04:20:41;;;;;;;11.32;7.20;;;14.40;99.90;;;;;;5032578;28;20033;-74
2023/07/27 04:23:06;;;;;;;9.02;6.80;;;14.40;99.90;;;;;;5015914;28;20491;-74
2023/07/27 04:25:32;;;;;;;9.32;7.05;;;14.40;99.90;;;;;;5032605;28;20037;-74
2023/07/27 04:27:57;;;;;;;11.63;7.35;;;14.40;99.90;;;;;;5032196;28;20402;-74
2023/07/27 04:30:23;;;;;;;11.07;7.30;;;14.40;99.90;;;;;;5032128;28;20040;-74
2023/07/27 04:32:49;;;;;;;10.98;7.43;;;14.40;99.90;;;;;;5016825;28;20124;-74
2023/07/27 04:35:14;;;;;;;11.75;7.07;;;14.40;99.90;;;;;;5032148;28;20493;-74
2023/07/27 04:37:40;;;;;;;11.15;7.15;;;14.40;99.90;;;;;;5032097;28;20045;-74
2023/07/27 04:40:06;;;;;;;13.38;7.15;;;14.40;99.90;;;;;;5032010;28;20037;-74
2023/07/27 04:42:32;;;;;;;10.30;6.47;;;14.40;99.90;;;;;;5015542;28;20073;-74
2023/07/27 04:44:57;;;;;;;8.90;7.05;;;14.40;99.90;;;;;;5032040;28;20094;-74
2023/07/27 04:47:23;;;;;;;10.70;7.13;;;14.40;99.90;;;;;;5032117;28;20084;-74
2023/07/27 04:49:48;;;;;;;9.20;6.63;;;14.40;99.90;;;;;;5031826;28;20514;-74
2023/07/27 04:52:14;;;;;;;9.80;7.28;;;14.50;99.90;;;;;;5031767;28;20037;-74
2023/07/27 04:54:39;;;;;;;8.88;7.00;;;14.50;99.90;;;;;;5031892;28;20037;-74
2023/07/27 04:57:05;;;;;;;8.95;6.57;;;14.50;99.90;;;;;;5015431;28;20052;-74
2023/07/27 04:59:31;;;;;;;9.25;7.15;;;14.50;99.90;;;;;;5031772;28;20057;-74
2023/07/27 05:01:56;;;;;;;10.30;6.57;;;14.50;99.90;;;;;;5031830;28;20033;-74
2023/07/27 05:04:22;;;;;;;10.35;7.10;;;14.50;99.90;;;;;;5031775;28;20049;-74
2023/07/27 05:06:48;;;;;;;11.38;7.22;;;14.50;99.90;;;;;;5031973;28;20128;-74
2023/07/27 05:09:14;;;;;;;10.82;7.47;;;14.50;99.90;;;;;;5015246;28;20487;-74
2023/07/27 05:11:39;;;;;;;11.30;6.85;;;14.50;99.90;;;;;;5031743;28;20064;-74
2023/07/27 05:14:05;;;;;;;12.27;7.65;;;14.50;99.90;;;;;;5031958;28;20034;-74
2023/07/27 05:16:30;;;;;;;9.82;6.93;;;14.50;99.90;;;;;;5015255;28;20473;-74
2023/07/27 05:18:57;;;;;;;9.85;7.45;;;14.50;99.90;;;;;;5031664;28;20045;-74
2023/07/27 05:21:23;;;;;;;10.43;7.38;;;14.60;99.90;;;;;;5031812;28;20060;-75
2023/07/27 05:23:49;;;;;;;10.10;6.75;;;14.60;99.90;;;;;;5015194;28;20565;-75
2023/07/27 05:26:15;;;;;;;10.48;6.65;;;14.50;99.90;;;;;;5031847;28;20049;-75
2023/07/27 05:28:40;;;;;;;7.60;5.97;;;14.60;99.90;;;;;;5031473;28;20042;-75
2023/07/27 05:31:07;;;;;;;10.43;7.25;;;14.60;99.90;;;;;;5031472;28;20034;-75
2023/07/27 05:33:33;;;;;;;10.25;6.28;;;14.60;99.90;;;;;;5031467;28;20129;-75
2023/07/27 05:35:59;;;;;;;9.63;6.72;;;14.60;99.90;;;;;;5015036;28;20120;-75
2023/07/27 05:38:24;;;;;;;8.93;6.32;;;14.60;99.90;;;;;;5031676;28;20038;-74
2023/07/27 05:40:50;;;;;;;9.05;5.65;;;14.60;99.90;;;;;;5015521;28;20056;-74
2023/07/27 05:43:15;;;;;;;6.85;5.35;;;14.60;99.90;;;;;;5031480;28;20414;-74
2023/07/27 05:45:41;;;;;;;11.25;6.40;;;14.70;99.90;;;;;;5015049;28;20038;-74
2023/07/27 05:48:07;;;;;;;7.10;5.38;;;14.60;99.90;;;;;;5031390;28;20049;-74
2023/07/27 05:50:33;;;;;;;8.27;5.53;;;14.60;99.90;;;;;;5031225;28;20106;-74
2023/07/27 05:52:59;;;;;;;7.70;5.13;;;14.60;99.90;;;;;;5031967;28;20132;-75
2023/07/27 05:55:24;;;;;;;8.25;5.40;;;14.70;99.90;;;;;;5031379;28;20559;-75
2023/07/27 05:57:50;;;;;;;8.10;5.13;;;14.70;99.90;;;;;;5031347;28;20129;-74
2023/07/27 06:00:16;;;;;;;7.25;5.55;;;14.70;99.90;;;;;;5031458;28;20048;-74
2023/07/27 06:02:42;;;;;;;10.15;5.50;;;14.80;99.90;;;;;;5014864;28;20127;-74
2023/07/27 06:05:08;;;;;;;7.53;5.10;;;14.80;99.90;;;;;;5034653;28;20068;-74
2023/07/27 06:07:34;;;;;;;7.75;5.72;;;14.90;99.90;;;;;;5018350;28;20045;-74
2023/07/27 06:09:59;;;;;;;9.40;5.32;;;14.90;99.90;;;;;;5034754;28;20033;-74
2023/07/27 06:12:25;;;;;;;6.82;4.80;;;15.00;99.90;;;;;;5034811;28;20033;-74
2023/07/27 06:14:51;;;;;;;7.07;5.22;;;15.00;99.90;;;;;;5018518;28;20033;-74
2023/07/27 06:17:17;;;;;;;8.75;5.68;;;15.00;99.90;;;;;;5035113;28;20041;-74
2023/07/27 06:19:42;;;;;;;14.40;5.97;;;15.10;99.90;;;;;;5035257;28;20041;-75
2023/07/27 06:22:08;;;;;;;7.90;5.97;;;15.00;99.90;;;;;;5035143;28;20091;-75
2023/07/27 06:24:34;;;;;;;7.60;6.22;;;15.10;99.90;;;;;;5034558;28;20445;-74
2023/07/27 06:26:59;;;;;;;8.55;6.00;;;15.00;99.90;;;;;;5034736;28;20048;-74
2023/07/27 06:29:25;;;;;;;9.95;6.78;;;15.00;99.90;;;;;;5034420;28;20410;-74
2023/07/27 06:31:50;;;;;;;8.88;6.25;;;15.10;99.90;;;;;;5034455;28;20087;-75
2023/07/27 06:34:16;;;;;;;11.48;6.93;;;15.10;99.90;;;;;;5034630;28;20073;-75
2023/07/27 06:36:42;;;;;;;9.57;6.50;;;15.10;99.90;;;;;;5017859;28;20037;-75
2023/07/27 06:39:08;;;;;;;8.80;6.07;;;15.10;99.90;;;;;;5034496;28;20037;-74
2023/07/27 06:41:34;;;;;;;8.77;6.80;;;15.10;99.90;;;;;;5034254;28;20046;-74
2023/07/27 06:43:59;;;;;;;10.18;7.18;;;15.20;99.90;;;;;;5017756;28;20056;-75
2023/07/27 06:46:26;;;;;;;9.77;7.00;;;15.30;99.90;;;;;;5034420;28;20076;-74
2023/07/27 06:48:52;;;;;;;10.82;6.88;;;15.30;99.90;;;;;;5034091;28;20466;-75
2023/07/27 06:51:18;;;;;;;10.00;6.30;;;15.30;99.90;;;;;;5033865;28;20046;-75
2023/07/27 06:53:44;;;;;;;8.70;6.50;;;15.30;99.90;;;;;;5034060;28;20043;-74
2023/07/27 06:56:09;;;;;;;8.45;6.72;;;15.30;99.90;;;;;;5017758;28;20072;-74
2023/07/27 06:58:35;;;;;;;7.45;6.20;;;15.30;99.90;;;;;;5033931;28;20037;-74
2023/07/27 07:01:01;;;;;;;7.03;6.30;;;15.30;99.90;;;;;;5034089;28;20048;-74
2023/07/27 07:03:26;;;;;;;8.88;6.90;;;15.40;99.90;;;;;;5033796;28;20099;-74
2023/07/27 07:05:55;;;;;;;9.45;6.70;;;15.40;99.90;;;;;;5033771;28;20041;-74
2023/07/27 07:08:20;;;;;;;10.48;7.15;;;15.50;99.90;;;;;;5033704;28;20458;-74
2023/07/27 07:10:46;;;;;;;9.23;6.70;;;15.50;99.90;;;;;;5033598;28;20077;-74
2023/07/27 07:13:12;;;;;;;7.32;6.38;;;15.50;99.90;;;;;;5033638;28;20064;-74
2023/07/27 07:15:38;;;;;;;9.77;6.82;;;15.60;99.90;;;;;;5016155;28;20037;-74
2023/07/27 07:18:03;;;;;;;7.57;5.90;;;15.60;99.90;;;;;;5033560;28;20052;-75
2023/07/27 07:20:29;;;;;;;10.23;6.38;;;15.60;99.90;;;;;;5033490;28;20038;-75
2023/07/27 07:22:55;;;;;;;9.55;6.90;;;15.60;99.90;;;;;;5033746;28;20033;-75
2023/07/27 07:25:20;;;;;;;6.78;5.70;;;15.50;99.90;;;;;;5016903;28;20494;-75
2023/07/27 07:27:46;;;;;;;8.57;6.35;;;15.60;99.90;;;;;;5033339;28;20046;-75
2023/07/27 07:30:12;;;;;;;7.18;5.90;;;15.60;99.90;;;;;;5033260;28;20051;-75
2023/07/27 07:32:37;;;;;;;9.73;6.90;;;15.60;99.90;;;;;;5033326;28;20069;-75
2023/07/27 07:35:04;;;;;;;7.80;6.13;;;15.60;99.90;;;;;;5033411;28;20041;-74
2023/07/27 07:37:29;;;;;;;8.40;6.57;;;15.70;99.90;;;;;;5016698;28;20464;-74
2023/07/27 07:39:55;;;;;;;9.60;6.15;;;15.70;99.90;;;;;;5033618;28;20129;-74
2023/07/27 07:42:20;;;;;;;7.68;6.47;;;15.70;99.90;;;;;;5033187;28;20421;-73
2023/07/27 07:44:46;;;;;;;8.05;6.22;;;15.70;99.90;;;;;;5033353;28;20068;-74
2023/07/27 07:47:12;;;;;;;6.00;5.40;;;15.80;99.90;;;;;;5032948;28;20465;-74
2023/07/27 07:49:37;;;;;;;7.38;5.93;;;15.80;99.90;;;;;;5032832;28;20037;-74
2023/07/27 07:52:04;;;;;;;6.53;5.18;;;15.80;99.90;;;;;;5033202;28;20041;-74
2023/07/27 07:54:30;;;;;;;6.45;4.93;;;15.80;99.90;;;;;;5032885;28;20080;-74
2023/07/27 07:56:56;;;;;;;7.43;5.78;;;15.80;99.90;;;;;;5016596;28;20073;-74
2023/07/27 07:59:23;;;;;;;7.28;5.93;;;15.80;99.90;;;;;;5032713;28;20449;-74
2023/07/27 08:01:49;;;;;;;6.82;5.05;;;15.80;99.90;;;;;;5032723;28;20116;-74
2023/07/27 08:04:15;;;;;;;6.95;5.68;;;15.80;99.90;;;;;;5032964;28;20398;-74
2023/07/27 08:06:41;;;;;;;7.30;5.70;;;15.80;99.90;;;;;;5032682;28;20406;-74
2023/07/27 08:09:06;;;;;;;6.53;4.88;;;15.80;99.90;;;;;;5032888;28;20041;-74
2023/07/27 08:11:33;;;;;;;5.65;4.53;;;15.80;99.90;;;;;;5032579;28;20038;-74
2023/07/27 08:14:01;;;;;;;5.45;4.40;;;15.80;99.90;;;;;;5016319;28;20060;-74
2023/07/27 08:16:30;;;;;;;6.38;4.40;;;15.80;99.90;;;;;;5016301;28;20030;-74
2023/07/27 08:18:56;;;;;;;4.47;3.70;;;15.80;99.90;;;;;;5032451;28;20040;-74
2023/07/27 08:21:21;;;;;;;6.40;4.32;;;15.70;99.90;;;;;;5032512;28;20033;-75
2023/07/27 08:23:47;;;;;;;4.93;3.80;;;15.80;99.90;;;;;;5032628;28;20461;-75
2023/07/27 08:26:14;;;;;;;4.95;3.35;;;15.90;99.90;;;;;;5032011;28;20041;-75
2023/07/27 08:28:40;;;;;;;3.80;3.33;;;15.80;99.90;;;;;;5032227;28;20441;-75
2023/07/27 08:31:07;;;;;;;4.78;3.50;;;15.90;99.90;;;;;;5032539;28;20041;-74
2023/07/27 08:33:33;;;;;;;5.20;3.45;;;15.90;99.90;;;;;;5032348;28;20080;-76
2023/07/27 08:36:00;;;;;;;3.80;3.00;;;16.00;99.90;;;;;;5032203;28;20120;-77
2023/07/27 08:38:27;;;;;;;3.75;3.13;;;16.00;99.90;;;;;;5016190;28;20064;-74
2023/07/27 08:40:57;;;;;;;4.07;3.03;;;16.00;99.90;;;;;;5032041;28;20033;-74
2023/07/27 08:43:24;;;;;;;3.63;3.17;;;16.00;99.90;;;;;;5032001;28;20049;-73
2023/07/27 08:45:50;;;;;;;3.80;3.00;;;16.10;99.90;;;;;;5032066;28;20041;-74
2023/07/27 08:48:16;;;;;;;2.80;2.50;;;16.10;99.90;;;;;;5032053;28;20142;-73
2023/07/27 08:50:44;;;;;;;4.90;3.30;;;16.00;99.90;;;;;;5031710;28;20048;-74
2023/07/27 08:53:13;;;;;;;3.70;2.42;;;16.10;99.90;;;;;;5015494;28;20038;-73
2023/07/27 08:55:39;;;;;;;4.38;2.80;;;16.10;99.90;;;;;;5031906;28;20079;-73
2023/07/27 08:58:06;;;;;;;4.70;2.78;;;16.20;99.90;;;;;;5015677;28;20442;-73
2023/07/27 09:00:31;;;;;;;3.47;2.78;;;16.20;99.90;;;;;;5032041;28;20045;-73
2023/07/27 09:02:58;;;;;;;3.97;2.97;;;16.20;99.90;;;;;;5032095;28;20052;-73
2023/07/27 09:05:39;;;;;;;4.30;2.95;;;16.20;99.90;;;;;;5031815;28;20034;-73
2023/07/27 09:08:07;;;;;;;3.58;3.15;;;16.30;99.90;;;;;;5031752;28;20550;-73
2023/07/27 09:10:33;;;;;;;3.17;2.88;;;16.30;99.90;;;;;;5031649;28;20498;-73
2023/07/27 09:13:02;;;;;;;3.80;2.90;;;16.30;99.90;;;;;;5031993;28;20052;-73
2023/07/27 09:15:27;;;;;;;3.97;2.80;;;16.40;99.90;;;;;;5031986;28;20120;-73
2023/07/27 09:17:53;;;;;;;3.30;2.78;;;16.40;99.90;;;;;;5031697;28;20576;-73
2023/07/27 09:20:19;;;;;;;3.42;2.60;;;16.40;99.90;;;;;;5031843;28;20045;-73
2023/07/27 09:22:45;;;;;;;3.85;3.25;;;16.40;99.90;;;;;;5031677;28;20077;-73
2023/07/27 09:25:11;;;;;;;3.22;2.92;;;16.50;99.90;;;;;;5031644;28;20075;-73
2023/07/27 09:27:44;;;;;;;4.15;3.40;;;16.60;99.90;;;;;;5031722;28;20033;-73
2023/07/27 09:30:16;;;;;;;;;;;16.60;99.90;;;;;;5031994;28;20128;-73
2023/07/27 09:32:41;;;;;;;4.10;3.70;;;16.60;99.90;;;;;;5015463;28;19949;-73
2023/07/27 09:35:13;;;;;;;4.32;3.83;;;16.60;99.90;;;;;;5031574;28;20041;-73
2023/07/27 09:37:43;;;;;;;3.90;3.20;;;16.70;99.90;;;;;;5031640;28;20064;-73
2023/07/27 09:40:14;;;;;;;3.90;3.33;;;16.70;99.90;;;;;;5035185;28;20037;-73
2023/07/27 09:42:44;;;;;;;4.32;3.55;;;16.80;99.90;;;;;;5035726;28;20092;-73
2023/07/27 09:45:10;;;;;;;3.22;2.92;;;16.80;99.90;;;;;;5035391;28;20052;-73
2023/07/27 09:47:36;;;;;;;3.40;3.08;;;16.80;99.90;;;;;;5035194;28;20041;-73
2023/07/27 09:50:02;;;;;;;4.63;3.55;;;16.80;99.90;;;;;;5035026;28;20048;-73
2023/07/27 09:52:29;;;;;;;3.20;2.90;;;16.80;99.90;;;;;;5035225;28;20075;-73
2023/07/27 09:54:57;;;;;;;3.22;2.92;;;16.80;99.90;;;;;;5035411;28;20037;-73
2023/07/27 09:57:23;;;;;;;4.00;2.85;;;16.80;99.90;;;;;;5035091;28;20414;-73
2023/07/27 09:59:49;;;;;;;3.20;2.90;;;16.80;99.90;;;;;;5034997;28;20034;-73
2023/07/27 10:02:15;;;;;;;3.15;2.75;;;16.80;99.90;;;;;;5034996;28;20052;-73
2023/07/27 10:04:51;;;;;;;2.67;2.45;;;16.90;99.90;;;;;;5018729;28;20044;-73
2023/07/27 10:07:21;;;;;;;2.70;2.50;;;17.00;99.90;;;;;;5034857;28;20069;-74
2023/07/27 10:09:47;;;;;;;2.83;2.53;;;16.90;99.90;;;;;;5018586;28;20067;-74
2023/07/27 10:12:27;;;;;;;3.75;2.70;;;17.00;99.90;;;;;;5034815;28;20041;-74
2023/07/27 10:15:19;;;;;;;4.03;2.35;;;17.10;99.90;;;;;;5034740;28;20402;-73
2023/07/27 10:17:49;;;;;;;2.67;2.47;;;17.10;99.90;;;;;;5034859;28;20041;-74
2023/07/27 10:20:41;;;;;;;2.85;2.58;;;17.00;99.90;;;;;;5018209;28;20497;-73
2023/07/27 10:23:11;;;;;;;2.53;2.33;;;17.20;99.90;;;;;;5015445;28;20466;-73
2023/07/27 10:25:55;;;;;;;2.75;2.55;;;17.20;99.90;;;;;;5034636;28;20041;-73
2023/07/27 10:28:44;;;;;;;3.67;2.80;;;17.20;99.90;;;;;;5034528;28;20038;-73
2023/07/27 10:31:19;;;;;;;3.00;2.70;;;17.30;99.90;;;;;;5034740;28;20052;-74
2023/07/27 10:33:47;;;;;;;2.65;2.45;;;17.20;99.90;;;;;;5018109;28;20494;-74
2023/07/27 10:36:13;;;;;;;3.47;3.13;;;17.30;99.90;;;;;;5034346;28;20498;-74
2023/07/27 10:38:39;;;;;;;3.65;3.15;;;17.30;99.90;;;;;;5017841;28;20033;-74
2023/07/27 10:41:12;;;;;;;3.55;2.88;;;17.30;99.90;;;;;;5017930;28;20172;-74
2023/07/27 10:43:58;;;;;;;5.72;2.72;;;17.30;99.90;;;;;;5034387;28;20073;-74
2023/07/27 10:46:24;;;;;;;3.13;2.83;;;17.20;99.90;;;;;;5034232;28;20056;-77
2023/07/27 10:49:09;;;;;;;5.97;3.00;;;17.30;99.90;;;;;;5017667;28;20038;-77
2023/07/27 10:51:34;;;;;;;3.63;2.80;;;17.40;99.90;;;;;;5034426;28;20498;-77
2023/07/27 10:54:00;;;;;;;4.10;3.28;;;17.30;99.90;;;;;;5034308;28;20033;-77
2023/07/27 10:56:27;;;;;;;3.58;3.28;;;17.40;99.90;;;;;;5034328;28;20556;-77
2023/07/27 10:58:59;;;;;;;3.50;3.20;;;17.40;99.90;;;;;;5034238;28;20045;-77
2023/07/27 11:01:25;;;;;;;4.10;3.43;;;17.50;99.90;;;;;;5034212;28;20172;-77
2023/07/27 11:03:51;;;;;;;4.70;3.35;;;17.50;99.90;;;;;;5034428;28;20073;-77
2023/07/27 11:06:17;;;;;;;4.07;3.65;;;17.50;99.90;;;;;;5017902;28;20048;-78
2023/07/27 11:08:43;;;;;;;4.03;3.55;;;17.70;99.90;;;;;;5034108;28;20051;-78
2023/07/27 11:11:18;;;;;;;4.63;3.72;;;17.60;99.90;;;;;;5034714;28;20033;-77
2023/07/27 11:13:44;;;;;;;5.03;3.92;;;17.70;99.90;;;;;;5034725;28;20080;-76
2023/07/27 11:16:10;;;;;;;4.38;3.50;;;17.70;99.90;;;;;;5034095;28;20103;-78
2023/07/27 11:18:36;;;;;;;4.95;4.50;;;17.70;99.90;;;;;;5033852;28;20080;-78
2023/07/27 11:21:02;;;;;;;4.95;4.55;;;17.80;99.90;;;;;;5033717;28;20037;-78
2023/07/27 11:23:29;;;;;;;4.55;3.75;;;17.80;99.90;;;;;;5017300;28;20107;-78
2023/07/27 11:25:56;;;;;;;6.03;3.88;;;17.80;99.90;;;;;;5016983;28;20448;-77
2023/07/27 11:28:22;;;;;;;4.55;4.15;;;17.80;99.90;;;;;;5017032;28;20088;-77
2023/07/27 11:30:52;;;;;;;3.42;3.13;;;17.90;99.90;;;;;;5033332;28;20033;-77
2023/07/27 11:33:29;;;;;;;4.03;3.45;;;17.90;99.90;;;;;;5017095;28;20025;-77
2023/07/27 11:35:54;;;;;;;5.25;3.65;;;17.90;99.90;;;;;;5033572;28;20102;-77
2023/07/27 11:38:20;;;;;;;3.70;3.40;;;17.90;99.90;;;;;;5033503;28;20135;-77
2023/07/27 11:40:48;;;;;;;3.15;2.85;;;18.00;99.90;;;;;;5016924;28;20037;-77
2023/07/27 11:43:14;;;;;;;4.05;3.65;;;18.10;99.90;;;;;;5033164;28;20041;-77
2023/07/27 11:45:40;;;;;;;4.10;3.70;;;18.10;99.90;;;;;;5016978;28;20037;-77
2023/07/27 11:48:06;;;;;;;3.40;3.10;;;18.00;99.90;;;;;;5032981;28;20033;-77
2023/07/27 11:50:36;;;;;;;4.90;3.13;;;18.10;99.90;;;;;;5016671;28;20037;-77
2023/07/27 11:53:03;;;;;;;3.38;3.03;;;18.20;99.90;;;;;;5033296;28;20104;-77
2023/07/27 11:55:34;;;;;;;3.88;3.15;;;18.20;99.90;;;;;;5016718;28;20135;-77
2023/07/27 11:57:59;;;;;;;5.32;3.15;;;18.10;99.90;;;;;;5033244;28;20084;-77
2023/07/27 12:00:25;;;;;;;3.50;3.17;;;18.10;99.90;;;;;;5032747;28;20469;-77
2023/07/27 12:02:51;;;;;;;3.38;3.08;;;18.20;99.90;;;;;;5032507;28;20034;-77
2023/07/27 12:05:22;;;;;;;3.60;3.30;;;18.10;99.90;;;;;;5033007;28;20099;-77
2023/07/27 12:07:52;;;;;;;3.40;3.10;;;18.10;99.90;;;;;;5033043;28;20387;-77
2023/07/27 12:10:20;;;;;;;4.40;3.65;;;18.10;99.90;;;;;;5016455;28;20029;-77
2023/07/27 12:13:09;;;;;;;3.85;3.45;;;18.10;99.90;;;;;;5032638;28;20045;-77
2023/07/27 12:15:37;;;;;;;3.83;2.85;;;18.20;99.90;;;;;;5016514;28;20577;-77
2023/07/27 12:18:05;;;;;;;3.58;2.65;;;18.20;99.90;;;;;;5033196;28;20067;-77
2023/07/27 12:20:33;;;;;;;5.15;3.10;;;18.10;99.90;;;;;;5016997;28;20051;-77
2023/07/27 12:22:58;;;;;;;3.47;3.17;;;18.10;99.90;;;;;;5032952;28;20045;-77
2023/07/27 12:25:29;;;;;;;3.25;2.95;;;18.20;99.90;;;;;;5016249;28;20051;-77
2023/07/27 12:27:55;;;;;;;2.97;2.67;;;18.20;99.90;;;;;;5032248;28;20095;-78
2023/07/27 12:30:22;;;;;;;3.20;2.90;;;18.20;99.90;;;;;;5032520;28;20048;-78
2023/07/27 12:32:49;;;;;;;4.28;3.03;;;18.40;99.90;;;;;;5032542;28;20410;-78
2023/07/27 12:35:15;;;;;;;4.55;3.20;;;18.40;99.90;;;;;;5032491;28;20044;-77
2023/07/27 12:37:43;;;;;;;3.97;3.58;;;18.30;99.90;;;;;;5032233;28;20052;-77
2023/07/27 12:40:09;;;;;;;4.00;3.58;;;18.30;99.90;;;;;;5032067;28;20120;-77
2023/07/27 12:42:35;;;;;;;4.68;3.88;;;18.30;99.90;;;;;;5015655;28;20038;-77
2023/07/27 12:45:01;;;;;;;4.20;3.78;;;18.40;99.90;;;;;;5032069;28;20056;-77
2023/07/27 12:47:26;;;;;;;7.57;4.03;;;18.30;99.90;;;;;;5032357;28;20038;-77